createdAt,value
2022-12-04T00:01:11.970Z,6.46
2022-12-04T00:03:25.646Z,6.42
2022-12-04T00:05:38.838Z,6.40
2022-12-04T00:07:52.043Z,6.37
2022-12-04T00:10:05.538Z,6.35
2022-12-04T00:12:18.742Z,6.33
2022-12-04T00:14:31.937Z,6.32
2022-12-04T00:16:45.365Z,6.30
2022-12-04T00:18:58.977Z,6.28
2022-12-04T00:21:13.798Z,6.27
2022-12-04T00:23:27.004Z,6.25
2022-12-04T00:25:41.464Z,6.23
2022-12-04T00:27:54.856Z,6.23
2022-12-04T00:30:08.629Z,6.21
2022-12-04T00:32:21.888Z,6.19
2022-12-04T00:34:35.443Z,6.18
2022-12-04T00:36:48.657Z,6.17
2022-12-04T00:39:02.275Z,6.17
2022-12-04T00:41:18.288Z,6.17
2022-12-04T00:43:31.791Z,6.16
2022-12-04T00:45:45.254Z,6.15
2022-12-04T00:47:58.565Z,6.14
2022-12-04T00:50:13.338Z,6.14
2022-12-04T00:52:26.587Z,6.12
2022-12-04T00:54:39.845Z,6.10
2022-12-04T00:56:53.054Z,6.08
2022-12-04T00:59:06.450Z,6.07
2022-12-04T01:01:21.779Z,6.06
2022-12-04T01:03:35.295Z,6.05
2022-12-04T01:05:49.318Z,6.05
2022-12-04T01:08:02.638Z,6.04
2022-12-04T01:10:18.742Z,6.03
2022-12-04T01:12:32.473Z,6.02
2022-12-04T01:14:45.895Z,6.01
2022-12-04T01:16:59.297Z,5.99
2022-12-04T01:19:14.656Z,5.96
2022-12-04T01:21:28.130Z,5.94
2022-12-04T01:23:41.614Z,5.92
2022-12-04T01:26:05.126Z,5.91
2022-12-04T01:28:18.560Z,5.90
2022-12-04T01:30:32.160Z,5.87
2022-12-04T01:32:45.844Z,5.85
2022-12-04T01:34:59.292Z,5.84
2022-12-04T01:37:12.724Z,5.85
2022-12-04T01:39:26.095Z,5.83
2022-12-04T01:41:39.679Z,5.81
2022-12-04T01:44:20.372Z,5.80
2022-12-04T01:46:33.631Z,5.78
2022-12-04T01:48:50.177Z,5.78
2022-12-04T01:51:08.630Z,5.78
2022-12-04T01:53:22.714Z,5.79
2022-12-04T01:55:36.201Z,5.79
2022-12-04T01:57:49.659Z,5.77
2022-12-04T02:00:05.859Z,5.75
2022-12-04T02:02:23.024Z,5.75
2022-12-04T02:04:37.368Z,5.74
2022-12-04T02:06:51.117Z,5.73
2022-12-04T02:09:04.796Z,5.74
2022-12-04T02:11:29.980Z,5.73
2022-12-04T02:13:55.036Z,5.72
2022-12-04T02:16:15.049Z,5.71
2022-12-04T02:18:37.107Z,5.72
2022-12-04T02:21:01.845Z,5.71
2022-12-04T02:23:32.858Z,5.71
2022-12-04T02:25:56.936Z,5.71
2022-12-04T02:28:18.977Z,5.70
2022-12-04T02:30:34.615Z,5.70
2022-12-04T02:32:52.316Z,5.68
2022-12-04T02:35:10.105Z,5.67
2022-12-04T02:37:26.930Z,5.64
2022-12-04T02:39:44.298Z,5.62
2022-12-04T02:42:03.312Z,5.59
2022-12-04T02:44:23.939Z,5.57
2022-12-04T02:46:42.299Z,5.55
2022-12-04T02:48:59.496Z,5.54
2022-12-04T02:51:15.982Z,5.54
2022-12-04T02:53:34.052Z,5.53
2022-12-04T02:55:50.797Z,5.52
2022-12-04T02:58:15.442Z,5.50
2022-12-04T03:00:29.524Z,5.47
2022-12-04T03:02:50.185Z,5.45
2022-12-04T03:05:08.243Z,5.43
2022-12-04T03:07:28.740Z,5.42
2022-12-04T03:09:46.692Z,5.40
2022-12-04T03:12:07.355Z,5.40
2022-12-04T03:14:25.736Z,5.38
2022-12-04T03:16:44.539Z,5.37
2022-12-04T03:19:01.598Z,5.35
2022-12-04T03:21:19.972Z,5.35
2022-12-04T03:23:37.321Z,5.34
2022-12-04T03:25:55.000Z,5.33
2022-12-04T03:28:12.376Z,5.29
2022-12-04T03:30:27.004Z,5.27
2022-12-04T03:32:43.798Z,5.26
2022-12-04T03:35:02.925Z,5.24
2022-12-04T03:37:22.119Z,5.24
2022-12-04T03:39:41.053Z,5.23
2022-12-04T03:42:02.964Z,5.24
2022-12-04T03:44:20.726Z,5.23
2022-12-04T03:46:39.568Z,5.23
2022-12-04T03:48:59.147Z,5.23
2022-12-04T03:51:19.113Z,5.20
2022-12-04T03:53:40.022Z,5.20
2022-12-04T03:56:01.951Z,5.20
2022-12-04T03:58:20.548Z,5.19
2022-12-04T04:00:36.488Z,5.16
2022-12-04T04:02:55.764Z,5.15
2022-12-04T04:05:12.157Z,5.15
2022-12-04T04:07:35.540Z,5.15
2022-12-04T04:09:54.000Z,5.13
2022-12-04T04:12:12.468Z,5.13
2022-12-04T04:14:57.614Z,5.12
2022-12-04T04:17:32.278Z,5.11
2022-12-04T04:20:07.576Z,5.08
2022-12-04T04:22:56.004Z,5.08
2022-12-04T04:25:15.317Z,5.07
2022-12-04T04:27:28.706Z,5.06
2022-12-04T04:29:43.843Z,5.07
2022-12-04T04:32:07.116Z,5.09
2022-12-04T04:34:26.537Z,5.10
2022-12-04T04:36:48.101Z,5.09
2022-12-04T04:39:10.061Z,5.08
2022-12-04T04:41:30.781Z,5.07
2022-12-04T04:43:52.226Z,5.05
2022-12-04T04:46:09.481Z,5.03
2022-12-04T04:48:30.059Z,5.03
2022-12-04T04:50:45.091Z,5.03
2022-12-04T04:53:03.342Z,5.07
2022-12-04T04:55:18.633Z,5.07
2022-12-04T04:57:37.315Z,5.10
2022-12-04T04:59:50.728Z,5.12
2022-12-04T05:02:04.175Z,5.12
2022-12-04T05:04:17.704Z,5.13
2022-12-04T05:06:31.055Z,5.14
2022-12-04T05:08:45.404Z,5.14
2022-12-04T05:10:59.429Z,5.14
2022-12-04T05:13:12.958Z,5.16
2022-12-04T05:15:26.205Z,5.18
2022-12-04T05:17:40.687Z,5.20
2022-12-04T05:19:57.722Z,5.23
2022-12-04T05:22:11.316Z,5.26
2022-12-04T05:24:24.556Z,5.29
2022-12-04T05:26:37.977Z,5.31
2022-12-04T05:28:51.291Z,5.32
2022-12-04T05:31:05.665Z,5.32
2022-12-04T05:33:18.811Z,5.33
2022-12-04T05:35:32.095Z,5.34
2022-12-04T05:37:46.886Z,5.35
2022-12-04T05:40:00.239Z,5.36
2022-12-04T05:42:13.695Z,5.36
2022-12-04T05:44:27.136Z,5.36
2022-12-04T05:46:40.534Z,5.35
2022-12-04T05:48:53.908Z,5.33
2022-12-04T05:51:08.429Z,5.32
2022-12-04T05:53:21.762Z,5.29
2022-12-04T05:55:35.035Z,5.30
2022-12-04T05:57:48.168Z,5.27
2022-12-04T06:00:01.606Z,5.26
2022-12-04T06:02:24.330Z,5.25
2022-12-04T06:04:37.806Z,5.26
2022-12-04T06:06:51.193Z,5.27
2022-12-04T06:09:04.918Z,5.26
2022-12-04T06:11:19.780Z,5.26
2022-12-04T06:13:33.388Z,5.24
2022-12-04T06:15:47.421Z,5.25
2022-12-04T06:18:01.264Z,5.24
2022-12-04T06:20:18.320Z,5.21
2022-12-04T06:22:32.050Z,5.19
2022-12-04T06:24:45.672Z,5.18
2022-12-04T06:27:26.887Z,5.19
2022-12-04T06:29:36.642Z,5.19
2022-12-04T06:31:50.278Z,5.18
2022-12-04T06:34:04.236Z,5.17
2022-12-04T06:36:20.008Z,5.16
2022-12-04T06:38:34.127Z,5.17
2022-12-04T06:40:48.472Z,5.16
2022-12-04T06:43:02.019Z,5.14
2022-12-04T06:45:17.777Z,5.11
2022-12-04T06:47:31.278Z,5.08
2022-12-04T06:49:44.995Z,5.07
2022-12-04T06:51:58.659Z,5.06
2022-12-04T06:54:13.213Z,5.06
2022-12-04T06:56:28.795Z,5.05
2022-12-04T06:58:42.418Z,5.04
2022-12-04T07:00:56.500Z,5.03
2022-12-04T07:03:10.232Z,5.01
2022-12-04T07:05:23.982Z,4.98
2022-12-04T07:07:37.674Z,4.95
2022-12-04T07:09:51.482Z,4.93
2022-12-04T07:12:05.051Z,4.92
2022-12-04T07:14:18.861Z,4.89
2022-12-04T07:16:39.949Z,4.88
2022-12-04T07:18:55.115Z,4.88
2022-12-04T07:21:11.510Z,4.86
2022-12-04T07:23:25.114Z,4.83
2022-12-04T07:25:42.476Z,4.79
2022-12-04T07:27:56.162Z,4.78
2022-12-04T07:30:15.468Z,4.75
2022-12-04T07:32:29.809Z,4.74
2022-12-04T07:34:43.443Z,4.74
2022-12-04T07:36:57.095Z,4.74
2022-12-04T07:39:10.938Z,4.75
2022-12-04T07:41:24.915Z,4.74
2022-12-04T07:43:39.406Z,4.73
2022-12-04T07:45:53.153Z,4.74
2022-12-04T07:48:06.934Z,4.74
2022-12-04T07:50:21.144Z,4.73
2022-12-04T07:52:35.038Z,4.73
2022-12-04T07:54:48.680Z,4.71
2022-12-04T07:57:02.406Z,4.72
2022-12-04T07:59:15.964Z,4.74
2022-12-04T08:01:30.128Z,4.76
2022-12-04T08:03:48.103Z,4.78
2022-12-04T08:06:06.160Z,4.80
2022-12-04T08:08:19.954Z,4.80
2022-12-04T08:10:33.750Z,4.82
2022-12-04T08:12:47.364Z,4.84
2022-12-04T08:15:00.934Z,4.86
2022-12-04T08:17:14.616Z,4.88
2022-12-04T08:19:28.539Z,4.92
2022-12-04T08:21:42.193Z,4.94
2022-12-04T08:23:57.207Z,4.96
2022-12-04T08:26:11.059Z,4.99
2022-12-04T08:28:24.585Z,5.01
2022-12-04T08:30:39.116Z,5.03
2022-12-04T08:32:52.770Z,5.05
2022-12-04T08:35:06.391Z,5.06
2022-12-04T08:37:19.935Z,5.08
2022-12-04T08:39:33.853Z,5.08
2022-12-04T08:41:50.050Z,5.10
2022-12-04T08:44:06.414Z,5.11
2022-12-04T08:46:21.443Z,5.13
2022-12-04T08:48:35.201Z,5.13
2022-12-04T08:50:53.039Z,5.13
2022-12-04T08:53:06.778Z,5.14
2022-12-04T08:55:21.477Z,5.17
2022-12-04T08:57:35.273Z,5.20
2022-12-04T08:59:48.928Z,5.21
2022-12-04T09:02:02.606Z,5.22
2022-12-04T09:04:16.556Z,5.22
2022-12-04T09:06:30.418Z,5.21
2022-12-04T09:08:44.766Z,5.18
2022-12-04T09:10:58.547Z,5.18
2022-12-04T09:13:13.005Z,5.17
2022-12-04T09:15:27.213Z,5.17
2022-12-04T09:17:41.250Z,5.17
2022-12-04T09:20:00.510Z,5.16
2022-12-04T09:22:14.649Z,5.15
2022-12-04T09:24:29.449Z,5.15
2022-12-04T09:26:43.553Z,5.15
2022-12-04T09:28:57.805Z,5.15
2022-12-04T09:31:12.052Z,5.16
2022-12-04T09:33:25.838Z,5.15
2022-12-04T09:35:39.497Z,5.15
2022-12-04T09:37:53.083Z,5.14
2022-12-04T09:40:06.779Z,5.13
2022-12-04T09:42:41.173Z,5.11
2022-12-04T09:45:02.073Z,5.09
2022-12-04T09:47:25.207Z,5.08
2022-12-04T09:49:44.541Z,5.08
2022-12-04T09:52:00.323Z,5.07
2022-12-04T09:54:20.283Z,5.05
2022-12-04T09:56:35.990Z,5.04
2022-12-04T09:58:54.657Z,5.03
2022-12-04T10:01:10.199Z,5.01
2022-12-04T10:03:34.853Z,5.00
2022-12-04T10:05:57.578Z,4.99
2022-12-04T10:08:23.053Z,4.99
2022-12-04T10:10:43.704Z,4.99
2022-12-04T10:13:03.816Z,4.99
2022-12-04T10:15:32.425Z,4.99
2022-12-04T10:18:01.823Z,4.98
2022-12-04T10:20:30.614Z,4.98
2022-12-04T10:22:55.899Z,4.96
2022-12-04T10:25:15.960Z,4.95
2022-12-04T10:27:34.172Z,4.97
2022-12-04T10:29:50.712Z,4.97
2022-12-04T10:32:09.086Z,4.99
2022-12-04T10:34:26.951Z,5.00
2022-12-04T10:36:40.990Z,5.01
2022-12-04T10:38:59.220Z,5.02
2022-12-04T10:41:19.076Z,5.03
2022-12-04T10:43:40.129Z,5.03
2022-12-04T10:45:53.762Z,5.03
2022-12-04T10:48:09.496Z,5.02
2022-12-04T10:50:25.707Z,5.02
2022-12-04T10:52:39.521Z,5.02
2022-12-04T10:54:55.836Z,5.02
2022-12-04T10:57:11.335Z,5.02
2022-12-04T10:59:25.561Z,5.02
2022-12-04T11:01:40.452Z,5.03
2022-12-04T11:04:03.585Z,5.03
2022-12-04T11:06:18.710Z,5.03
2022-12-04T11:08:35.656Z,5.02
2022-12-04T11:11:00.296Z,5.01
2022-12-04T11:13:22.374Z,5.01
2022-12-04T11:15:38.297Z,5.01
2022-12-04T11:17:53.882Z,5.00
2022-12-04T11:20:09.965Z,4.99
2022-12-04T11:22:25.105Z,4.99
2022-12-04T11:24:40.227Z,4.98
2022-12-04T11:26:55.077Z,4.98
2022-12-04T11:29:10.441Z,4.98
2022-12-04T11:31:26.331Z,4.99
2022-12-04T11:33:46.422Z,5.00
2022-12-04T11:36:03.528Z,5.02
2022-12-04T11:38:22.584Z,5.03
2022-12-04T11:40:37.130Z,5.06
2022-12-04T11:43:00.868Z,5.07
2022-12-04T11:45:26.288Z,5.07
2022-12-04T11:47:40.281Z,5.08
2022-12-04T11:50:07.299Z,5.08
2022-12-04T11:52:37.834Z,5.10
2022-12-04T11:55:04.656Z,5.11
2022-12-04T11:57:26.659Z,5.12
2022-12-04T11:59:52.464Z,5.14
2022-12-04T12:02:17.639Z,5.15
2022-12-04T12:05:02.202Z,5.16
2022-12-04T12:07:37.549Z,5.16
2022-12-04T12:10:02.878Z,5.16
2022-12-04T12:12:21.574Z,5.16
2022-12-04T12:14:45.395Z,5.16
2022-12-04T12:17:08.859Z,5.15
2022-12-04T12:19:58.933Z,5.13
2022-12-04T12:22:20.446Z,5.12
2022-12-04T12:24:40.390Z,5.11
2022-12-04T12:27:10.536Z,5.11
2022-12-04T12:29:37.615Z,5.10
2022-12-04T12:32:10.332Z,5.10
2022-12-04T12:34:36.040Z,5.10
2022-12-04T12:36:59.317Z,5.10
2022-12-04T12:39:20.312Z,5.10
2022-12-04T12:41:39.763Z,5.10
2022-12-04T12:43:58.603Z,5.10
2022-12-04T12:46:20.214Z,5.09
2022-12-04T12:48:39.609Z,5.09
2022-12-04T12:51:14.900Z,5.09
2022-12-04T12:53:35.495Z,5.09
2022-12-04T12:55:53.369Z,5.09
2022-12-04T12:58:15.836Z,5.09
2022-12-04T13:00:32.922Z,5.09
2022-12-04T13:02:52.319Z,5.08
2022-12-04T13:05:09.023Z,5.08
2022-12-04T13:07:44.189Z,5.08
2022-12-04T13:10:05.955Z,5.07
2022-12-04T13:12:22.404Z,5.08
2022-12-04T13:14:36.007Z,5.06
2022-12-04T13:16:52.543Z,5.05
2022-12-04T13:19:16.958Z,5.04
2022-12-04T13:21:45.755Z,5.03
2022-12-04T13:24:20.935Z,5.01
2022-12-04T13:26:49.678Z,4.99
2022-12-04T13:29:16.768Z,4.96
2022-12-04T13:31:39.287Z,4.94
2022-12-04T13:34:14.487Z,4.93
2022-12-04T13:36:42.874Z,4.92
2022-12-04T13:39:22.043Z,4.91
2022-12-04T13:41:39.118Z,4.90
2022-12-04T13:43:56.794Z,4.90
2022-12-04T13:46:25.720Z,4.90
2022-12-04T13:48:42.931Z,4.89
2022-12-04T13:51:09.527Z,4.89
2022-12-04T13:53:38.592Z,4.90
2022-12-04T13:56:07.984Z,4.90
2022-12-04T13:58:37.503Z,4.91
2022-12-04T14:00:51.685Z,4.92
2022-12-04T14:03:08.430Z,4.93
2022-12-04T14:05:29.538Z,4.93
2022-12-04T14:07:46.319Z,4.95
2022-12-04T14:10:01.420Z,4.95
2022-12-04T14:12:18.203Z,4.96
2022-12-04T14:14:40.149Z,4.97
2022-12-04T14:16:55.506Z,4.98
2022-12-04T14:19:10.086Z,4.98
2022-12-04T14:21:23.776Z,4.99
2022-12-04T14:23:44.677Z,5.00
2022-12-04T14:25:59.166Z,5.02
2022-12-04T14:28:42.360Z,5.02
2022-12-04T14:31:17.459Z,5.03
2022-12-04T14:33:33.237Z,5.03
2022-12-04T14:36:05.180Z,5.02
2022-12-04T14:38:25.988Z,5.01
2022-12-04T14:40:49.317Z,5.00
2022-12-04T14:43:03.237Z,5.01
2022-12-04T14:45:30.721Z,5.01
2022-12-04T14:47:52.664Z,5.00
2022-12-04T14:50:18.425Z,5.00
2022-12-04T14:52:38.423Z,5.00
2022-12-04T14:55:07.955Z,4.99
2022-12-04T14:57:39.647Z,5.00
2022-12-04T14:59:55.662Z,4.99
2022-12-04T15:02:15.181Z,4.98
2022-12-04T15:04:33.099Z,4.98
2022-12-04T15:06:55.421Z,4.97
2022-12-04T15:09:39.237Z,4.97
2022-12-04T15:12:14.415Z,4.95
2022-12-04T15:14:28.648Z,4.95
2022-12-04T15:16:42.303Z,4.93
2022-12-04T15:19:03.359Z,4.92
2022-12-04T15:21:17.836Z,4.92
2022-12-04T15:23:38.614Z,4.93
2022-12-04T15:25:54.745Z,4.94
2022-12-04T15:28:15.352Z,4.96
2022-12-04T15:30:32.567Z,4.98
2022-12-04T15:32:46.048Z,5.00
2022-12-04T15:35:03.175Z,5.02
2022-12-04T15:37:23.438Z,5.04
2022-12-04T15:39:39.535Z,5.05
2022-12-04T15:41:53.271Z,5.07
2022-12-04T15:44:24.879Z,5.07
2022-12-04T15:46:49.908Z,5.08
2022-12-04T15:49:20.062Z,5.08
2022-12-04T15:51:33.944Z,5.08
2022-12-04T15:53:51.287Z,5.09
2022-12-04T15:56:10.473Z,5.10
2022-12-04T15:58:30.066Z,5.11
2022-12-04T16:00:57.351Z,5.11
2022-12-04T16:03:29.804Z,5.09
2022-12-04T16:05:43.978Z,5.07
2022-12-04T16:07:59.836Z,5.06
2022-12-04T16:12:58.630Z,5.09
2022-12-04T16:15:13.635Z,5.07
2022-12-04T16:17:33.097Z,5.07
2022-12-04T16:19:47.958Z,5.08
2022-12-04T16:22:02.436Z,5.09
2022-12-04T16:24:19.165Z,5.11
2022-12-04T16:26:32.903Z,5.13
2022-12-04T16:28:46.991Z,5.14
2022-12-04T16:31:01.632Z,5.16
2022-12-04T16:33:16.622Z,5.17
2022-12-04T16:35:32.773Z,5.18
2022-12-04T16:37:49.844Z,5.19
2022-12-04T16:40:07.797Z,5.22
2022-12-04T16:42:25.112Z,5.23
2022-12-04T16:44:41.653Z,5.25
2022-12-04T16:46:57.236Z,5.26
2022-12-04T16:49:12.030Z,5.28
2022-12-04T16:51:27.559Z,5.28
2022-12-04T16:53:42.866Z,5.28
2022-12-04T16:55:57.295Z,5.29
2022-12-04T16:58:11.686Z,5.29
2022-12-04T17:00:26.660Z,5.28
2022-12-04T17:02:40.706Z,5.29
2022-12-04T17:04:57.905Z,5.30
2022-12-04T17:07:12.064Z,5.30
2022-12-04T17:09:25.693Z,5.29
2022-12-04T17:11:39.299Z,5.28
2022-12-04T17:13:53.009Z,5.26
2022-12-04T17:16:06.626Z,5.24
2022-12-04T17:18:21.617Z,5.22
2022-12-04T17:20:35.333Z,5.21
2022-12-04T17:22:48.904Z,5.22
2022-12-04T17:25:03.111Z,5.23
2022-12-04T17:27:16.965Z,5.21
2022-12-04T17:29:30.824Z,5.18
2022-12-04T17:31:44.507Z,5.15
2022-12-04T17:34:00.245Z,5.11
2022-12-04T17:36:17.424Z,5.08
2022-12-04T17:38:30.987Z,5.05
2022-12-04T17:40:44.641Z,5.02
2022-12-04T17:42:58.194Z,4.99
2022-12-04T17:45:14.830Z,4.94
2022-12-04T17:47:28.476Z,4.89
2022-12-04T17:49:42.147Z,4.84
2022-12-04T17:51:59.062Z,4.80
2022-12-04T17:54:14.430Z,4.77
2022-12-04T17:56:28.773Z,4.74
2022-12-04T17:58:42.590Z,4.72
2022-12-04T18:00:56.431Z,4.71
2022-12-04T18:03:10.344Z,4.71
2022-12-04T18:05:27.030Z,4.70
2022-12-04T18:07:40.802Z,4.72
2022-12-04T18:09:54.585Z,4.74
2022-12-04T18:12:08.824Z,4.74
2022-12-04T18:14:25.275Z,4.73
2022-12-04T18:16:40.595Z,4.72
2022-12-04T18:18:56.155Z,4.72
2022-12-04T18:21:12.390Z,4.68
2022-12-04T18:23:25.954Z,4.66
2022-12-04T18:25:39.683Z,4.62
2022-12-04T18:27:53.264Z,4.56
2022-12-04T18:30:07.004Z,4.50
2022-12-04T18:32:20.640Z,4.44
2022-12-04T18:34:34.501Z,4.40
2022-12-04T18:36:48.567Z,4.36
2022-12-04T18:39:04.387Z,4.30
2022-12-04T18:41:18.691Z,4.27
2022-12-04T18:43:33.411Z,4.24
2022-12-04T18:45:47.147Z,4.22
2022-12-04T18:48:01.993Z,4.20
2022-12-04T18:50:16.321Z,4.19
2022-12-04T18:52:29.652Z,4.18
2022-12-04T18:54:42.999Z,4.15
2022-12-04T18:56:56.777Z,4.15
2022-12-04T18:59:11.760Z,4.13
2022-12-04T19:01:25.576Z,4.11
2022-12-04T19:03:39.299Z,4.10
2022-12-04T19:05:56.867Z,4.09
2022-12-04T19:08:10.452Z,4.08
2022-12-04T19:10:24.177Z,4.08
2022-12-04T19:12:37.985Z,4.08
2022-12-04T19:14:51.539Z,4.07
2022-12-04T19:17:05.053Z,4.06
2022-12-04T19:19:19.071Z,4.05
2022-12-04T19:21:32.784Z,4.07
2022-12-04T19:23:46.565Z,4.07
2022-12-04T19:26:03.884Z,4.07
2022-12-04T19:28:17.445Z,4.07
2022-12-04T19:30:30.901Z,4.06
2022-12-04T19:32:44.437Z,4.08
2022-12-04T19:34:57.963Z,4.09
2022-12-04T19:37:11.380Z,4.09
2022-12-04T19:39:24.742Z,4.12
2022-12-04T19:41:38.411Z,4.13
2022-12-04T19:43:52.847Z,4.15
2022-12-04T19:46:06.210Z,4.16
2022-12-04T19:48:19.699Z,4.20
2022-12-04T19:50:33.623Z,4.23
2022-12-04T19:52:47.338Z,4.26
2022-12-04T19:55:00.717Z,4.28
2022-12-04T19:57:14.904Z,4.31
2022-12-04T19:59:33.044Z,4.35
2022-12-04T20:01:49.576Z,4.40
2022-12-04T20:04:03.607Z,4.42
2022-12-04T20:06:19.366Z,4.43
2022-12-04T20:08:32.709Z,4.42
2022-12-04T20:10:46.020Z,4.40
2022-12-04T20:12:59.412Z,4.39
2022-12-04T20:15:13.449Z,4.38
2022-12-04T20:17:26.704Z,4.39
2022-12-04T20:19:40.039Z,4.41
2022-12-04T20:21:58.915Z,4.41
2022-12-04T20:24:14.812Z,4.43
2022-12-04T20:26:30.268Z,4.44
2022-12-04T20:28:44.693Z,4.44
2022-12-04T20:30:58.728Z,4.43
2022-12-04T20:33:12.164Z,4.44
2022-12-04T20:35:25.868Z,4.47
2022-12-04T20:37:39.487Z,4.48
2022-12-04T20:39:52.808Z,4.48
2022-12-04T20:42:06.216Z,4.49
2022-12-04T20:44:21.318Z,4.48
2022-12-04T20:46:36.526Z,4.49
2022-12-04T20:48:51.030Z,4.49
2022-12-04T20:51:06.967Z,4.49
2022-12-04T20:53:20.441Z,4.49
2022-12-04T20:55:33.772Z,4.51
2022-12-04T20:57:47.099Z,4.51
2022-12-04T21:00:01.975Z,4.53
2022-12-04T21:02:16.659Z,4.54
2022-12-04T21:04:30.114Z,4.56
2022-12-04T21:06:44.649Z,4.58
2022-12-04T21:08:58.994Z,4.61
2022-12-04T21:11:12.353Z,4.62
2022-12-04T21:13:41.984Z,4.63
2022-12-04T21:16:06.148Z,4.64
2022-12-04T21:18:19.464Z,4.65
2022-12-04T21:20:32.589Z,4.62
2022-12-04T21:22:45.771Z,4.62
2022-12-04T21:24:59.315Z,4.61
2022-12-04T21:27:17.373Z,4.61
2022-12-04T21:29:34.275Z,4.60
2022-12-04T21:31:47.658Z,4.59
2022-12-04T21:34:04.262Z,4.58
2022-12-04T21:36:17.798Z,4.58
2022-12-04T21:38:31.134Z,4.58
2022-12-04T21:40:44.547Z,4.59
2022-12-04T21:42:57.866Z,4.60
2022-12-04T21:45:13.158Z,4.61
2022-12-04T21:47:29.787Z,4.64
2022-12-04T21:49:44.074Z,4.65
2022-12-04T21:51:58.652Z,4.68
2022-12-04T21:54:12.627Z,4.69
2022-12-04T21:56:26.001Z,4.71
2022-12-04T21:58:39.352Z,4.71
2022-12-04T22:00:53.054Z,4.68
2022-12-04T22:03:07.232Z,4.65
2022-12-04T22:05:20.976Z,4.62
2022-12-04T22:07:34.616Z,4.59
2022-12-04T22:09:48.256Z,4.58
2022-12-04T22:12:06.802Z,4.61
2022-12-04T22:14:28.168Z,4.63
2022-12-04T22:16:42.791Z,4.66
2022-12-04T22:19:00.374Z,4.68
2022-12-04T22:21:16.128Z,4.72
2022-12-04T22:23:29.813Z,4.75
2022-12-04T22:25:43.398Z,4.79
2022-12-04T22:27:58.296Z,4.82
2022-12-04T22:30:14.129Z,4.84
2022-12-04T22:32:28.067Z,4.87
2022-12-04T22:34:41.452Z,4.91
2022-12-04T22:36:55.291Z,4.94
2022-12-04T22:39:10.201Z,4.96
2022-12-04T22:41:25.969Z,4.94
2022-12-04T22:43:41.043Z,4.93
2022-12-04T22:45:55.471Z,4.90
2022-12-04T22:48:09.192Z,4.89
2022-12-04T22:50:23.089Z,4.88
2022-12-04T22:52:37.913Z,4.88
2022-12-04T22:54:53.017Z,4.88
2022-12-04T22:57:06.421Z,4.89
2022-12-04T22:59:19.836Z,4.91
2022-12-04T23:01:34.591Z,4.93
2022-12-04T23:03:49.053Z,4.96
2022-12-04T23:06:06.257Z,4.98
2022-12-04T23:08:19.896Z,5.00
2022-12-04T23:10:33.253Z,5.00
2022-12-04T23:12:46.588Z,5.00
2022-12-04T23:15:00.145Z,4.97
2022-12-04T23:17:13.525Z,4.95
2022-12-04T23:19:27.224Z,4.92
2022-12-04T23:21:40.700Z,4.89
2022-12-04T23:23:55.236Z,4.87
2022-12-04T23:26:10.905Z,4.84
2022-12-04T23:28:24.560Z,4.82
2022-12-04T23:30:37.913Z,4.81
2022-12-04T23:32:51.214Z,4.80
2022-12-04T23:35:04.567Z,4.80
2022-12-04T23:37:17.795Z,4.80
2022-12-04T23:39:31.370Z,4.80
2022-12-04T23:41:44.656Z,4.81
2022-12-04T23:43:58.674Z,4.82
2022-12-04T23:46:12.415Z,4.83
2022-12-04T23:48:25.658Z,4.84
2022-12-04T23:50:38.934Z,4.85
2022-12-04T23:52:52.145Z,4.86
2022-12-04T23:55:05.402Z,4.87
2022-12-04T23:57:18.608Z,4.88
2022-12-04T23:59:31.837Z,4.88
